Time;durP1;ratioP1;P1;durP2;ratioP2;P2;SDS_P1;SDS_P2;PMS_P1;PMS_P2;Temp;Humidity;BMP_temperature;BMP_pressure;BME280_temperature;BME280_humidity;BME280_pressure;Samples;Min_cycle;Max_cycle;Signal;HPM_P1;HPM_P2
2022/01/25 00:26:38;;;;;;;92.65;34.15;;;;;;;;;;4975263;28;20518;-60
2022/01/25 00:29:13;;;;;;;88.90;37.30;;;;;;;;;;4975174;28;20023;-61
2022/01/25 00:31:40;;;;;;;99.00;39.90;;;;;;;;;;4975865;28;20117;-55
2022/01/25 00:34:06;;;;;;;95.60;39.75;;;;;;;;;;4975690;28;20027;-61
2022/01/25 00:36:33;;;;;;;96.25;38.33;;;;;;;;;;4975387;28;20023;-59
2022/01/25 00:39:00;;;;;;;115.32;44.22;;;;;;;;;;4975504;28;20034;-57
2022/01/25 00:41:26;;;;;;;135.98;56.17;;;;;;;;;;4975582;28;20022;-63
2022/01/25 00:43:53;;;;;;;181.43;71.28;;;;;;;;;;4975066;28;20027;-55
2022/01/25 00:46:21;;;;;;;195.52;77.70;;;;;;;;;;4975074;28;20018;-57
2022/01/25 00:48:51;;;;;;;216.43;82.70;;;;;;;;;;4974686;28;20052;-57
2022/01/25 00:54:03;;;;;;;226.38;83.93;;;;;;;;;;4975339;28;20043;-59
2022/01/25 00:56:30;;;;;;;214.63;80.43;;;;;;;;;;4974734;28;20102;-58
2022/01/25 00:58:57;;;;;;;186.10;66.93;;;;;;;;;;4974693;28;20508;-64
2022/01/25 01:01:24;;;;;;;194.20;72.75;;;;;;;;;;4975148;28;20037;-62
2022/01/25 01:03:50;;;;;;;165.13;63.35;;;;;;;;;;4974806;28;20472;-61
2022/01/25 01:06:17;;;;;;;121.50;49.83;;;;;;;;;;4975119;28;20034;-58
2022/01/25 01:08:43;;;;;;;107.57;39.83;;;;;;;;;;4957712;28;20057;-58
2022/01/25 01:11:14;;;;;;;87.75;35.92;;;;;;;;;;4974713;28;20421;-61
2022/01/25 01:43:41;;;;;;;85.57;33.22;;;;;;;;;;4974791;28;20035;-62
2022/01/25 01:48:50;;;;;;;120.00;45.25;;;;;;;;;;4974631;28;20031;-62
2022/01/25 01:51:32;;;;;;;76.50;29.73;;;;;;;;;;4974713;28;20042;-61
2022/01/25 01:53:59;;;;;;;74.28;30.02;;;;;;;;;;4974548;28;20051;-62
2022/01/25 01:56:26;;;;;;;75.18;28.55;;;;;;;;;;4974827;28;20026;-58
2022/01/25 01:58:52;;;;;;;78.13;31.55;;;;;;;;;;4974702;28;20492;-57
2022/01/25 02:01:19;;;;;;;75.30;32.55;;;;;;;;;;4974234;28;20030;-63
2022/01/25 02:03:46;;;;;;;76.30;31.83;;;;;;;;;;4973362;28;20555;-63
2022/01/25 02:06:12;;;;;;;85.53;39.08;;;;;;;;;;4973764;28;20089;-64
2022/01/25 02:08:38;;;;;;;140.65;52.28;;;;;;;;;;4974583;28;20027;-58
2022/01/25 02:11:06;;;;;;;139.75;55.22;;;;;;;;;;4974573;28;20035;-62
2022/01/25 02:13:33;;;;;;;164.02;59.92;;;;;;;;;;4974105;28;20176;-57
2022/01/25 02:16:03;;;;;;;161.60;63.95;;;;;;;;;;4973993;28;20027;-61
2022/01/25 02:23:59;;;;;;;186.20;71.25;;;;;;;;;;4974132;28;20073;-61
2022/01/25 02:26:25;;;;;;;181.15;66.75;;;;;;;;;;4973739;28;20035;-58
2022/01/25 02:28:51;;;;;;;195.32;77.53;;;;;;;;;;4974390;28;20019;-60
2022/01/25 02:31:18;;;;;;;184.77;69.43;;;;;;;;;;4974323;28;20030;-59
2022/01/25 02:33:44;;;;;;;123.30;50.78;;;;;;;;;;4976387;28;20027;-61
2022/01/25 02:36:12;;;;;;;106.50;41.40;;;;;;;;;;4977664;28;20022;-61
2022/01/25 02:38:38;;;;;;;104.35;39.17;;;;;;;;;;4977463;28;20023;-59
2022/01/25 02:41:05;;;;;;;111.53;43.13;;;;;;;;;;4977398;28;20365;-63
2022/01/25 02:43:34;;;;;;;101.07;38.10;;;;;;;;;;4977659;28;20391;-63
2022/01/25 02:46:21;;;;;;;89.07;36.00;;;;;;;;;;4977870;28;20018;-59
2022/01/25 02:48:50;;;;;;;85.18;33.28;;;;;;;;;;4977548;28;20030;-62
2022/01/25 02:51:16;;;;;;;93.00;36.45;;;;;;;;;;4977293;28;20496;-60
2022/01/25 02:53:42;;;;;;;90.32;35.55;;;;;;;;;;4977688;28;20034;-60
2022/01/25 02:56:08;;;;;;;95.05;36.40;;;;;;;;;;4977111;28;20023;-60
2022/01/25 02:58:34;;;;;;;88.78;34.85;;;;;;;;;;4977231;28;20043;-62
2022/01/25 03:01:00;;;;;;;83.43;34.42;;;;;;;;;;4977348;28;20048;-59
2022/01/25 03:03:27;;;;;;;87.95;33.38;;;;;;;;;;4976801;28;20043;-62
2022/01/25 03:05:53;;;;;;;87.68;34.65;;;;;;;;;;4977071;28;20037;-58
2022/01/25 03:08:19;;;;;;;76.85;30.38;;;;;;;;;;4976763;28;20395;-61
2022/01/25 03:10:47;;;;;;;79.57;31.75;;;;;;;;;;4977188;28;20023;-57
2022/01/25 03:13:18;;;;;;;84.28;31.25;;;;;;;;;;4977168;28;20392;-58
2022/01/25 03:18:24;;;;;;;96.63;34.25;;;;;;;;;;4976927;28;20033;-60
2022/01/25 03:20:59;;;;;;;71.50;28.85;;;;;;;;;;4960143;28;20532;-60
2022/01/25 03:23:28;;;;;;;68.20;26.60;;;;;;;;;;4976352;28;20034;-63
2022/01/25 03:25:54;;;;;;;67.60;27.77;;;;;;;;;;4976845;28;20023;-58
2022/01/25 03:28:21;;;;;;;70.22;29.58;;;;;;;;;;4976825;28;20034;-61
2022/01/25 03:30:47;;;;;;;68.20;28.30;;;;;;;;;;4976589;28;20027;-60
2022/01/25 03:33:14;;;;;;;75.13;29.25;;;;;;;;;;4977228;28;20472;-60
2022/01/25 03:35:41;;;;;;;69.43;28.00;;;;;;;;;;4976762;28;20027;-61
2022/01/25 03:38:07;;;;;;;66.22;27.17;;;;;;;;;;4976672;28;20125;-60
2022/01/25 03:40:34;;;;;;;76.82;30.88;;;;;;;;;;4977378;28;20038;-60
2022/01/25 03:43:03;;;;;;;74.68;28.60;;;;;;;;;;4977260;28;20110;-60
2022/01/25 03:45:32;;;;;;;67.82;27.05;;;;;;;;;;4975605;28;20487;-61
2022/01/25 03:50:25;;;;;;;76.30;32.60;;;;;;;;;;4976084;28;20035;-60
2022/01/25 03:52:51;;;;;;;73.43;29.35;;;;;;;;;;4976364;28;20022;-56
2022/01/25 03:55:17;;;;;;;64.43;27.42;;;;;;;;;;4976349;28;20027;-56
2022/01/25 03:57:44;;;;;;;119.63;45.47;;;;;;;;;;4975951;28;20058;-59
2022/01/25 04:00:11;;;;;;;127.28;48.13;;;;;;;;;;4976331;28;20031;-60
2022/01/25 04:02:44;;;;;;;119.82;45.33;;;;;;;;;;4975790;28;20031;-58
2022/01/25 04:05:19;;;;;;;111.90;40.90;;;;;;;;;;4975884;28;20027;-60
2022/01/25 04:07:50;;;;;;;91.93;36.03;;;;;;;;;;4976071;28;20030;-61
2022/01/25 04:10:17;;;;;;;85.25;34.83;;;;;;;;;;4975749;28;20113;-58
2022/01/25 04:12:44;;;;;;;88.25;33.08;;;;;;;;;;4975664;28;20031;-62
2022/01/25 04:15:10;;;;;;;81.38;30.42;;;;;;;;;;4975938;28;20030;-61
2022/01/25 04:17:37;;;;;;;70.95;29.15;;;;;;;;;;4975811;28;20034;-61
2022/01/25 04:25:21;;;;;;;71.00;26.75;;;;;;;;;;4975076;28;20033;-60
2022/01/25 04:27:47;;;;;;;72.97;29.10;;;;;;;;;;4975515;28;20019;-62
2022/01/25 04:30:13;;;;;;;79.60;30.10;;;;;;;;;;4973938;28;20041;-58
2022/01/25 04:32:47;;;;;;;68.43;28.25;;;;;;;;;;4975488;28;20427;-58
2022/01/25 04:52:11;;;;;;;74.93;30.73;;;;;;;;;;4975002;28;20062;-59
2022/01/25 04:56:58;;;;;;;82.63;29.48;;;;;;;;;;4974089;28;20031;-59
2022/01/25 04:59:38;;;;;;;72.18;27.27;;;;;;;;;;4975131;28;20077;-55
2022/01/25 05:02:14;;;;;;;60.97;25.60;;;;;;;;;;4974755;28;20479;-59
2022/01/25 05:04:46;;;;;;;74.80;28.67;;;;;;;;;;4974276;28;20392;-58
2022/01/25 05:09:54;;;;;;;71.03;28.08;;;;;;;;;;4974901;28;20360;-62
2022/01/25 05:12:36;;;;;;;74.60;30.45;;;;;;;;;;4974824;28;20027;-58
2022/01/25 05:15:18;;;;;;;73.13;30.08;;;;;;;;;;4974785;28;20022;-63
2022/01/25 05:17:47;;;;;;;90.40;32.95;;;;;;;;;;4975337;28;20023;-60
2022/01/25 05:22:58;;;;;;;83.85;34.53;;;;;;;;;;4974388;28;20104;-58
2022/01/25 05:25:24;;;;;;;88.38;33.83;;;;;;;;;;4975242;28;20030;-59
2022/01/25 05:27:50;;;;;;;83.53;34.78;;;;;;;;;;4974765;28;20027;-58
2022/01/25 05:30:16;;;;;;;78.05;32.42;;;;;;;;;;4974438;28;20035;-56
2022/01/25 05:32:43;;;;;;;72.82;28.95;;;;;;;;;;4973545;28;20035;-57
2022/01/25 05:35:09;;;;;;;84.32;30.70;;;;;;;;;;4974844;28;20026;-65
2022/01/25 05:37:41;;;;;;;79.65;30.77;;;;;;;;;;4974816;28;20026;-61
2022/01/25 05:40:13;;;;;;;78.75;32.70;;;;;;;;;;4974868;28;20022;-60
2022/01/25 05:45:37;;;;;;;73.40;31.52;;;;;;;;;;4974700;28;20053;-62
2022/01/25 05:48:03;;;;;;;66.13;26.63;;;;;;;;;;4974554;28;20488;-59
2022/01/25 05:50:29;;;;;;;57.33;25.27;;;;;;;;;;4974019;28;20487;-59
2022/01/25 05:52:56;;;;;;;71.20;27.98;;;;;;;;;;4974570;28;20035;-61
2022/01/25 05:55:22;;;;;;;56.20;21.60;;;;;;;;;;4974340;28;20030;-59
2022/01/25 05:57:48;;;;;;;51.58;20.88;;;;;;;;;;4974475;28;20046;-62
2022/01/25 06:00:14;;;;;;;57.47;22.17;;;;;;;;;;4974578;28;20106;-62
2022/01/25 06:02:40;;;;;;;66.00;25.20;;;;;;;;;;4993029;28;20038;-58
2022/01/25 06:05:07;;;;;;;95.35;30.55;;;;;;;;;;4992406;28;20076;-58
2022/01/25 06:07:33;;;;;;;218.50;62.47;;;;;;;;;;4976336;28;20375;-57
2022/01/25 06:09:59;;;;;;;223.13;71.30;;;;;;;;;;4997571;28;20069;-61
2022/01/25 06:12:25;;;;;;;173.40;55.35;;;;;;;;;;4996799;28;20038;-62
2022/01/25 06:14:52;;;;;;;108.40;38.65;;;;;;;;;;4997615;28;20058;-56
2022/01/25 06:17:18;;;;;;;114.80;40.35;;;;;;;;;;4997068;28;20033;-59
2022/01/25 06:19:44;;;;;;;148.25;47.47;;;;;;;;;;4997328;28;20034;-57
2022/01/25 06:22:10;;;;;;;87.78;34.50;;;;;;;;;;4996518;28;20072;-56
2022/01/25 06:24:36;;;;;;;107.10;36.65;;;;;;;;;;4996797;28;20061;-58
2022/01/25 06:27:03;;;;;;;152.27;49.83;;;;;;;;;;4996891;28;20057;-58
2022/01/25 06:29:29;;;;;;;200.07;58.85;;;;;;;;;;4997310;28;20463;-57
2022/01/25 06:31:55;;;;;;;158.18;55.50;;;;;;;;;;4996784;28;20022;-64
2022/01/25 06:34:21;;;;;;;168.82;62.97;;;;;;;;;;4996623;28;20022;-62
2022/01/25 06:36:47;;;;;;;202.25;74.55;;;;;;;;;;4996922;28;20049;-59
2022/01/25 06:39:14;;;;;;;221.77;76.65;;;;;;;;;;4996174;28;20031;-59
2022/01/25 06:41:40;;;;;;;518.03;178.52;;;;;;;;;;4996758;28;20439;-60
2022/01/25 06:44:07;;;;;;;239.73;84.05;;;;;;;;;;4996809;28;20053;-59
2022/01/25 06:46:33;;;;;;;205.75;75.05;;;;;;;;;;4996573;28;20102;-57
2022/01/25 06:48:59;;;;;;;195.00;72.68;;;;;;;;;;4996979;28;20030;-59
2022/01/25 06:51:25;;;;;;;202.02;73.00;;;;;;;;;;4996860;28;20106;-55
2022/01/25 06:53:51;;;;;;;159.27;63.78;;;;;;;;;;4996474;28;20033;-56
2022/01/25 06:56:18;;;;;;;167.63;61.47;;;;;;;;;;4996443;28;20041;-61
2022/01/25 06:58:44;;;;;;;154.10;62.95;;;;;;;;;;4996828;28;20126;-59
2022/01/25 07:01:10;;;;;;;219.80;75.63;;;;;;;;;;4989983;28;20519;-60
2022/01/25 07:03:37;;;;;;;193.30;71.68;;;;;;;;;;4985941;28;20077;-58
2022/01/25 07:06:03;;;;;;;269.35;86.80;;;;;;;;;;4986560;28;20223;-54
2022/01/25 07:08:29;;;;;;;149.57;59.70;;;;;;;;;;4982397;28;20027;-57
2022/01/25 07:10:55;;;;;;;160.00;61.90;;;;;;;;;;4985785;28;20105;-58
2022/01/25 07:13:22;;;;;;;165.00;66.90;;;;;;;;;;4987121;28;20030;-61
2022/01/25 07:15:48;;;;;;;169.65;70.43;;;;;;;;;;4985683;28;20027;-60
2022/01/25 07:18:15;;;;;;;173.50;71.57;;;;;;;;;;4985712;28;20480;-57
2022/01/25 07:20:51;;;;;;;176.40;71.72;;;;;;;;;;4986095;28;20018;-65
2022/01/25 07:23:21;;;;;;;172.38;67.38;;;;;;;;;;4987193;28;20383;-62
2022/01/25 07:25:47;;;;;;;161.77;66.32;;;;;;;;;;4983973;28;20058;-64
2022/01/25 07:28:13;;;;;;;187.65;75.00;;;;;;;;;;4983647;28;20034;-56
2022/01/25 07:30:40;;;;;;;183.10;71.63;;;;;;;;;;4987203;28;20030;-60
2022/01/25 07:33:07;;;;;;;188.18;71.38;;;;;;;;;;4985613;28;20034;-61
2022/01/25 07:35:34;;;;;;;161.63;64.63;;;;;;;;;;4985391;28;20479;-62
2022/01/25 07:38:00;;;;;;;172.93;67.53;;;;;;;;;;4987058;28;20050;-59
2022/01/25 07:40:26;;;;;;;183.18;71.90;;;;;;;;;;4985016;28;20022;-61
2022/01/25 07:42:52;;;;;;;173.32;70.78;;;;;;;;;;4985539;28;20026;-61
2022/01/25 07:45:19;;;;;;;171.02;67.05;;;;;;;;;;4986722;28;20022;-59
2022/01/25 07:47:51;;;;;;;178.38;72.15;;;;;;;;;;4984230;28;20030;-65
2022/01/25 07:50:37;;;;;;;165.27;67.55;;;;;;;;;;4986509;28;20114;-61
2022/01/25 07:53:05;;;;;;;145.98;58.40;;;;;;;;;;4993203;28;20030;-63
2022/01/25 07:55:31;;;;;;;155.07;66.57;;;;;;;;;;4994007;28;20027;-63
2022/01/25 07:57:57;;;;;;;157.60;66.00;;;;;;;;;;4989980;28;20047;-61
2022/01/25 08:00:24;;;;;;;151.32;68.05;;;;;;;;;;4966682;28;20502;-62
2022/01/25 08:02:51;;;;;;;154.77;65.25;;;;;;;;;;4983492;28;20109;-59
2022/01/25 08:05:19;;;;;;;174.30;71.75;;;;;;;;;;4986076;28;20030;-61
2022/01/25 08:07:45;;;;;;;174.95;71.85;;;;;;;;;;4985124;28;20101;-56
2022/01/25 08:10:12;;;;;;;162.35;74.97;;;;;;;;;;4984309;28;20384;-59
2022/01/25 08:12:38;;;;;;;88.70;32.80;;;;;;;;;;4986283;28;20022;-60
2022/01/25 08:15:05;;;;;;;96.40;33.85;;;;;;;;;;4984502;28;20027;-60
2022/01/25 08:17:33;;;;;;;104.88;34.13;;;;;;;;;;4983788;28;20091;-60
2022/01/25 08:19:59;;;;;;;85.78;31.05;;;;;;;;;;4982217;28;20078;-60
2022/01/25 08:22:27;;;;;;;82.45;30.63;;;;;;;;;;4983851;28;20437;-62
2022/01/25 08:24:54;;;;;;;126.57;39.05;;;;;;;;;;4983980;28;20029;-61
2022/01/25 08:27:22;;;;;;;115.15;40.47;;;;;;;;;;4983662;28;20436;-58
2022/01/25 08:29:49;;;;;;;128.35;41.38;;;;;;;;;;4984117;28;20050;-62
2022/01/25 08:32:16;;;;;;;142.65;58.58;;;;;;;;;;4974771;28;20029;-59
2022/01/25 08:34:43;;;;;;;185.77;84.75;;;;;;;;;;4975368;28;20066;-61
2022/01/25 08:37:09;;;;;;;56.58;26.38;;;;;;;;;;4974788;28;20023;-61
2022/01/25 08:39:35;;;;;;;225.25;103.88;;;;;;;;;;4975508;28;20027;-61
2022/01/25 08:42:01;;;;;;;213.55;101.35;;;;;;;;;;4975619;28;20038;-62
2022/01/25 08:44:28;;;;;;;157.15;73.05;;;;;;;;;;4975102;28;20031;-62
2022/01/25 08:46:54;;;;;;;106.95;52.55;;;;;;;;;;4958231;28;20483;-63
2022/01/25 08:49:21;;;;;;;70.32;33.63;;;;;;;;;;4975285;28;20049;-63
2022/01/25 08:51:48;;;;;;;80.78;39.85;;;;;;;;;;4974837;28;20027;-60
2022/01/25 08:54:15;;;;;;;71.50;33.50;;;;;;;;;;4975373;28;20031;-60
2022/01/25 08:56:41;;;;;;;73.68;32.38;;;;;;;;;;4974784;28;20391;-62
2022/01/25 08:59:08;;;;;;;74.32;38.53;;;;;;;;;;4975249;28;20412;-61
2022/01/25 09:01:34;;;;;;;84.47;37.28;;;;;;;;;;4975218;28;20023;-62
2022/01/25 09:04:03;;;;;;;74.00;30.90;;;;;;;;;;4974627;28;20027;-60
2022/01/25 09:06:29;;;;;;;56.25;26.58;;;;;;;;;;4974814;28;20031;-62
2022/01/25 09:09:02;;;;;;;48.17;23.90;;;;;;;;;;4975045;28;20061;-63
2022/01/25 09:11:29;;;;;;;38.70;20.63;;;;;;;;;;4974723;28;20110;-64
2022/01/25 09:13:55;;;;;;;40.10;19.58;;;;;;;;;;4973767;28;20041;-60
2022/01/25 09:16:21;;;;;;;40.08;18.92;;;;;;;;;;4975106;28;20022;-63
2022/01/25 09:18:47;;;;;;;33.88;17.42;;;;;;;;;;4974890;28;20050;-62
2022/01/25 09:21:14;;;;;;;39.90;17.67;;;;;;;;;;4974227;28;20476;-61
2022/01/25 09:23:40;;;;;;;38.20;19.65;;;;;;;;;;4974548;28;20037;-62
2022/01/25 09:26:06;;;;;;;40.70;20.02;;;;;;;;;;4974307;28;20030;-62
2022/01/25 09:28:33;;;;;;;36.30;17.83;;;;;;;;;;4974823;28;20510;-61
2022/01/25 09:31:01;;;;;;;38.88;19.67;;;;;;;;;;4974501;28;20027;-60
2022/01/25 09:33:27;;;;;;;43.00;20.60;;;;;;;;;;4974518;28;20027;-61
2022/01/25 09:35:56;;;;;;;38.88;20.20;;;;;;;;;;4974457;28;20033;-62
2022/01/25 09:38:23;;;;;;;42.40;20.75;;;;;;;;;;4974231;28;20192;-63
2022/01/25 09:40:51;;;;;;;39.25;20.77;;;;;;;;;;4974366;28;20023;-61
2022/01/25 09:43:17;;;;;;;45.22;20.83;;;;;;;;;;4986950;28;20121;-61
2022/01/25 09:45:44;;;;;;;36.00;19.70;;;;;;;;;;4976755;28;20039;-63
2022/01/25 09:48:10;;;;;;;37.83;19.02;;;;;;;;;;4976220;28;20026;-60
2022/01/25 09:50:37;;;;;;;37.65;20.17;;;;;;;;;;4978297;28;20023;-57
2022/01/25 09:53:04;;;;;;;47.13;23.25;;;;;;;;;;4978589;28;20031;-56
2022/01/25 09:55:34;;;;;;;42.10;21.98;;;;;;;;;;4978249;28;20469;-56
2022/01/25 09:58:02;;;;;;;42.53;20.77;;;;;;;;;;4978342;28;20051;-58
2022/01/25 10:00:29;;;;;;;41.35;21.17;;;;;;;;;;4978690;28;20023;-57
2022/01/25 10:03:34;;;;;;;38.95;21.48;;;;;;;;;;4978301;28;20129;-56
2022/01/25 10:05:50;;;;;;;44.03;23.88;;;;;;;;;;4975950;28;20480;-60
2022/01/25 10:08:18;;;;;;;44.13;24.58;;;;;;;;;;4978344;28;20503;-55
2022/01/25 10:10:44;;;;;;;43.03;24.48;;;;;;;;;;4978833;28;20030;-58
2022/01/25 10:13:20;;;;;;;47.40;26.33;;;;;;;;;;4978105;28;20039;-50
2022/01/25 10:15:47;;;;;;;48.03;25.80;;;;;;;;;;4977860;28;20027;-54
2022/01/25 10:18:17;;;;;;;47.28;25.52;;;;;;;;;;4984568;28;20039;-54
2022/01/25 10:20:45;;;;;;;52.37;25.10;;;;;;;;;;4992432;28;20026;-55
2022/01/25 10:23:25;;;;;;;53.42;27.63;;;;;;;;;;4996922;28;20084;-56
2022/01/25 10:25:53;;;;;;;46.93;27.10;;;;;;;;;;4977712;28;20026;-60
2022/01/25 10:28:23;;;;;;;45.38;25.50;;;;;;;;;;4985825;28;20034;-60
2022/01/25 10:30:53;;;;;;;37.55;22.50;;;;;;;;;;4984118;28;20341;-56
2022/01/25 10:33:43;;;;;;;42.38;23.73;;;;;;;;;;4985573;28;20030;-56
2022/01/25 10:36:19;;;;;;;43.10;23.42;;;;;;;;;;4985907;28;20050;-60
2022/01/25 10:38:48;;;;;;;43.58;25.25;;;;;;;;;;4987731;28;20084;-57
2022/01/25 10:41:18;;;;;;;42.85;24.67;;;;;;;;;;4990071;28;20019;-54
2022/01/25 10:43:45;;;;;;;51.50;29.85;;;;;;;;;;4985778;28;20113;-56
2022/01/25 10:46:14;;;;;;;41.60;24.73;;;;;;;;;;4982480;28;20467;-59
2022/01/25 10:48:41;;;;;;;46.88;26.25;;;;;;;;;;4984471;28;20538;-61
2022/01/25 10:51:12;;;;;;;39.58;23.52;;;;;;;;;;4983787;28;20464;-49
2022/01/25 10:53:39;;;;;;;42.85;23.75;;;;;;;;;;4984653;28;20045;-58
2022/01/25 10:56:06;;;;;;;45.05;23.80;;;;;;;;;;4990371;28;20480;-55
2022/01/25 10:58:36;;;;;;;53.38;28.92;;;;;;;;;;4984379;28;20049;-59
2022/01/25 11:01:02;;;;;;;42.75;23.52;;;;;;;;;;4983490;28;20038;-57
2022/01/25 11:03:29;;;;;;;38.05;21.90;;;;;;;;;;4977094;28;20031;-60
2022/01/25 11:05:56;;;;;;;37.90;22.60;;;;;;;;;;4976826;28;20449;-58
2022/01/25 11:08:24;;;;;;;35.33;22.25;;;;;;;;;;4977045;28;20076;-59
2022/01/25 11:10:57;;;;;;;39.20;22.13;;;;;;;;;;4977325;28;20023;-58
2022/01/25 11:15:59;;;;;;;36.00;21.58;;;;;;;;;;4976610;28;20035;-58
2022/01/25 11:18:25;;;;;;;37.53;22.98;;;;;;;;;;4976508;28;20114;-58
2022/01/25 11:20:53;;;;;;;40.88;23.63;;;;;;;;;;4987818;28;20428;-58
2022/01/25 11:23:20;;;;;;;39.42;23.20;;;;;;;;;;4995623;28;20030;-60
2022/01/25 11:25:48;;;;;;;37.55;23.40;;;;;;;;;;4994674;28;20029;-58
2022/01/25 11:28:14;;;;;;;41.75;25.75;;;;;;;;;;4978563;28;20027;-60
2022/01/25 11:30:41;;;;;;;37.13;22.83;;;;;;;;;;4994086;28;20053;-60
2022/01/25 11:33:09;;;;;;;39.75;24.48;;;;;;;;;;4995211;28;20089;-55
2022/01/25 11:35:36;;;;;;;40.63;24.70;;;;;;;;;;4994948;28;20382;-55
2022/01/25 11:38:03;;;;;;;40.50;24.13;;;;;;;;;;4995933;28;20026;-57
2022/01/25 11:40:37;;;;;;;54.80;30.08;;;;;;;;;;4994426;28;20466;-58
2022/01/25 11:43:05;;;;;;;54.83;31.60;;;;;;;;;;4995136;28;20399;-58
2022/01/25 11:45:34;;;;;;;54.33;28.58;;;;;;;;;;4995947;28;20475;-56
2022/01/25 11:48:01;;;;;;;45.42;28.45;;;;;;;;;;4995590;28;20486;-56
2022/01/25 11:50:28;;;;;;;54.42;32.05;;;;;;;;;;4995804;28;20030;-57
2022/01/25 11:52:55;;;;;;;51.17;28.77;;;;;;;;;;4995334;28;20121;-54
2022/01/25 11:55:22;;;;;;;43.00;27.10;;;;;;;;;;4995224;28;20041;-55
2022/01/25 11:57:49;;;;;;;47.38;27.52;;;;;;;;;;4995575;28;20116;-55
2022/01/25 12:00:16;;;;;;;59.78;33.22;;;;;;;;;;4995265;28;20106;-56
2022/01/25 12:02:43;;;;;;;36.97;24.20;;;;;;;;;;4995471;28;20026;-58
2022/01/25 12:05:10;;;;;;;37.40;22.25;;;;;;;;;;4995186;28;20015;-57
2022/01/25 12:07:42;;;;;;;39.42;23.95;;;;;;;;;;4994726;28;20098;-57
2022/01/25 12:10:32;;;;;;;34.22;22.65;;;;;;;;;;4995419;28;20034;-59
2022/01/25 12:13:14;;;;;;;36.77;21.53;;;;;;;;;;4984567;28;20470;-60
2022/01/25 12:15:41;;;;;;;39.25;22.27;;;;;;;;;;4994451;28;20256;-60
2022/01/25 12:18:30;;;;;;;40.90;22.75;;;;;;;;;;4994968;28;20101;-58
2022/01/25 12:20:56;;;;;;;39.83;22.95;;;;;;;;;;4958749;28;20471;-59
2022/01/25 12:23:43;;;;;;;39.13;23.23;;;;;;;;;;4994336;28;20037;-59
2022/01/25 12:26:15;;;;;;;35.75;22.98;;;;;;;;;;4995139;28;20030;-58
2022/01/25 12:28:45;;;;;;;47.97;25.70;;;;;;;;;;4994906;28;20049;-56
2022/01/25 12:31:15;;;;;;;34.25;20.35;;;;;;;;;;4995041;28;20113;-58
2022/01/25 12:33:42;;;;;;;31.55;18.58;;;;;;;;;;4990862;28;20053;-59
2022/01/25 12:36:09;;;;;;;33.42;20.65;;;;;;;;;;4981545;28;20061;-60
2022/01/25 12:38:49;;;;;;;31.38;20.15;;;;;;;;;;4984518;28;20029;-59
2022/01/25 12:41:20;;;;;;;39.65;21.67;;;;;;;;;;4984615;28;20018;-59
2022/01/25 12:43:48;;;;;;;37.63;21.05;;;;;;;;;;4983889;28;20034;-58
2022/01/25 12:46:14;;;;;;;33.28;20.48;;;;;;;;;;4982219;28;20058;-60
2022/01/25 12:48:47;;;;;;;33.90;20.17;;;;;;;;;;4983294;28;20084;-59
2022/01/25 12:51:14;;;;;;;33.22;19.75;;;;;;;;;;4981775;28;20027;-59
2022/01/25 12:53:43;;;;;;;37.58;21.23;;;;;;;;;;4977073;28;20031;-59
2022/01/25 12:56:11;;;;;;;31.10;19.63;;;;;;;;;;4974901;28;20031;-58
2022/01/25 12:58:38;;;;;;;30.77;18.92;;;;;;;;;;4975359;28;20054;-58
2022/01/25 13:01:06;;;;;;;30.73;18.95;;;;;;;;;;4975055;28;20031;-56
2022/01/25 13:03:43;;;;;;;30.52;18.88;;;;;;;;;;4974964;28;20173;-58
2022/01/25 13:06:09;;;;;;;28.50;18.10;;;;;;;;;;4975079;28;20388;-59
2022/01/25 13:08:57;;;;;;;36.38;22.38;;;;;;;;;;4974675;28;20023;-59
2022/01/25 13:11:25;;;;;;;28.02;17.33;;;;;;;;;;4974609;28;20026;-56
2022/01/25 13:14:02;;;;;;;30.13;18.75;;;;;;;;;;4974625;28;20555;-55
2022/01/25 13:16:39;;;;;;;28.92;18.33;;;;;;;;;;4974396;28;20137;-55
2022/01/25 13:19:06;;;;;;;28.23;17.77;;;;;;;;;;4986426;28;20486;-57
2022/01/25 13:21:40;;;;;;;24.75;16.67;;;;;;;;;;4988423;28;20027;-59
2022/01/25 13:24:11;;;;;;;25.45;14.80;;;;;;;;;;4985597;28;20030;-52
2022/01/25 13:26:48;;;;;;;26.42;15.85;;;;;;;;;;4981466;28;20045;-57
2022/01/25 13:32:16;;;;;;;30.02;18.33;;;;;;;;;;4983699;28;20033;-54
2022/01/25 13:34:43;;;;;;;26.65;16.00;;;;;;;;;;4992119;28;20053;-56
2022/01/25 13:37:19;;;;;;;21.65;13.50;;;;;;;;;;4992411;28;20033;-56
2022/01/25 13:39:53;;;;;;;23.52;13.50;;;;;;;;;;4993749;28;20027;-57
2022/01/25 13:42:27;;;;;;;26.58;14.18;;;;;;;;;;4993943;28;20027;-54
2022/01/25 13:48:23;;;;;;;28.45;15.75;;;;;;;;;;4993799;28;20395;-55
2022/01/25 13:50:53;;;;;;;21.92;12.80;;;;;;;;;;4977929;28;20038;-56
2022/01/25 13:53:19;;;;;;;23.30;14.10;;;;;;;;;;4993266;28;20026;-57
2022/01/25 13:55:50;;;;;;;22.77;12.57;;;;;;;;;;4993786;28;20044;-54
2022/01/25 13:58:20;;;;;;;24.10;13.18;;;;;;;;;;4993830;28;20472;-56
2022/01/25 14:00:46;;;;;;;24.05;12.98;;;;;;;;;;4993552;28;20025;-60
2022/01/25 14:03:15;;;;;;;28.63;13.77;;;;;;;;;;4993759;28;20030;-56
2022/01/25 14:05:41;;;;;;;26.30;12.48;;;;;;;;;;4993781;28;20034;-62
2022/01/25 14:08:08;;;;;;;27.52;14.13;;;;;;;;;;4993576;28;20018;-59
2022/01/25 14:10:34;;;;;;;25.85;14.13;;;;;;;;;;4993967;28;20030;-55
2022/01/25 14:21:41;;;;;;;54.70;27.45;;;;;;;;;;4993101;28;20045;-56
2022/01/25 14:24:07;;;;;;;49.53;23.67;;;;;;;;;;4992626;28;20030;-59
2022/01/25 14:26:34;;;;;;;64.32;29.63;;;;;;;;;;4993781;28;20050;-50
2022/01/25 14:29:13;;;;;;;60.63;30.52;;;;;;;;;;4994403;28;20472;-56
2022/01/25 14:31:41;;;;;;;45.00;25.02;;;;;;;;;;4997356;28;20027;-52
2022/01/25 14:34:09;;;;;;;50.35;22.95;;;;;;;;;;4996920;28;20027;-56
2022/01/25 14:36:35;;;;;;;48.70;23.17;;;;;;;;;;4996630;28;20018;-55
2022/01/25 14:39:02;;;;;;;49.72;24.33;;;;;;;;;;4988245;28;20030;-55
2022/01/25 14:41:31;;;;;;;50.47;24.88;;;;;;;;;;4977702;28;20114;-54
2022/01/25 14:44:06;;;;;;;56.13;27.80;;;;;;;;;;4977436;28;20476;-55
2022/01/25 14:46:35;;;;;;;60.03;29.15;;;;;;;;;;4977647;28;20035;-54
2022/01/25 14:49:03;;;;;;;66.55;36.65;;;;;;;;;;4984807;28;20022;-55
2022/01/25 14:51:49;;;;;;;80.43;36.65;;;;;;;;;;4984811;28;20018;-54
2022/01/25 14:54:16;;;;;;;76.10;36.50;;;;;;;;;;4985671;28;20015;-54
2022/01/25 14:56:50;;;;;;;74.63;37.20;;;;;;;;;;4988672;28;20026;-59
2022/01/25 14:59:26;;;;;;;85.90;41.63;;;;;;;;;;4963619;28;20110;-49
2022/01/25 15:02:05;;;;;;;72.38;35.45;;;;;;;;;;4982434;28;20026;-57
2022/01/25 15:04:39;;;;;;;71.63;34.58;;;;;;;;;;4972931;28;20471;-58
2022/01/25 15:07:13;;;;;;;70.00;30.45;;;;;;;;;;4988789;28;20475;-55
2022/01/25 15:09:58;;;;;;;74.78;35.30;;;;;;;;;;4995016;28;20030;-57
2022/01/25 15:12:34;;;;;;;81.00;35.65;;;;;;;;;;4995320;28;20391;-58
2022/01/25 15:17:27;;;;;;;91.40;37.60;;;;;;;;;;4995802;28;20050;-58
2022/01/25 15:19:53;;;;;;;84.38;36.95;;;;;;;;;;4996016;28;20073;-59
2022/01/25 15:22:20;;;;;;;78.60;34.55;;;;;;;;;;4996033;28;20495;-59
2022/01/25 15:24:48;;;;;;;79.57;35.80;;;;;;;;;;4987279;28;20031;-56
2022/01/25 15:27:15;;;;;;;87.57;40.40;;;;;;;;;;4976474;28;20101;-59
2022/01/25 15:29:41;;;;;;;100.85;44.13;;;;;;;;;;4977045;28;20523;-60
2022/01/25 15:32:11;;;;;;;103.43;46.97;;;;;;;;;;4975561;28;20027;-60
2022/01/25 15:34:40;;;;;;;126.82;55.45;;;;;;;;;;4976440;28;20042;-63
2022/01/25 15:37:06;;;;;;;115.82;52.03;;;;;;;;;;4976608;28;20109;-60
2022/01/25 15:39:33;;;;;;;124.80;55.08;;;;;;;;;;4976572;28;20023;-58
2022/01/25 15:42:00;;;;;;;121.38;56.05;;;;;;;;;;4975717;28;20599;-63
2022/01/25 15:44:46;;;;;;;114.32;52.80;;;;;;;;;;4976346;28;20395;-63
2022/01/25 15:47:27;;;;;;;96.47;43.45;;;;;;;;;;4984514;28;20506;-61
2022/01/25 15:49:54;;;;;;;90.83;40.60;;;;;;;;;;4983529;28;20073;-61
2022/01/25 15:52:21;;;;;;;94.18;42.13;;;;;;;;;;4985178;28;20033;-61
2022/01/25 15:54:47;;;;;;;95.00;39.90;;;;;;;;;;4986961;28;20023;-57
2022/01/25 15:57:15;;;;;;;82.10;36.08;;;;;;;;;;4982676;28;20038;-60
2022/01/25 15:59:42;;;;;;;76.32;35.78;;;;;;;;;;4985031;28;20022;-61
2022/01/25 16:02:13;;;;;;;125.35;57.65;;;;;;;;;;4986367;28;20023;-62
2022/01/25 16:04:44;;;;;;;119.10;54.33;;;;;;;;;;4984900;28;20522;-60
2022/01/25 16:07:11;;;;;;;112.40;52.40;;;;;;;;;;4986579;28;20023;-60
2022/01/25 16:09:39;;;;;;;87.82;40.67;;;;;;;;;;4983858;28;20240;-62
2022/01/25 16:12:07;;;;;;;78.60;36.10;;;;;;;;;;4986993;28;20031;-62
2022/01/25 16:14:34;;;;;;;86.38;39.45;;;;;;;;;;4995367;28;20026;-60
2022/01/25 16:17:01;;;;;;;114.47;53.80;;;;;;;;;;4995392;28;20040;-56
2022/01/25 16:19:27;;;;;;;99.15;47.55;;;;;;;;;;4995608;28;20105;-61
2022/01/25 16:21:53;;;;;;;62.67;29.52;;;;;;;;;;4995646;28;20022;-61
2022/01/25 16:24:19;;;;;;;62.83;28.83;;;;;;;;;;4995229;28;20032;-63
2022/01/25 16:26:45;;;;;;;76.60;32.47;;;;;;;;;;4994734;28;20037;-62